sensor_id;sensor_type;location;lat;lon;timestamp;P1;durP1;ratioP1;P2;durP2;ratioP2
22070;SDS011;11200;51.488;6.668;2022-10-22T00:00:26;6.05;;;4.28;;
22070;SDS011;11200;51.488;6.668;2022-10-22T00:02:52;4.65;;;4.03;;
22070;SDS011;11200;51.488;6.668;2022-10-22T00:05:17;4.88;;;4.30;;
22070;SDS011;11200;51.488;6.668;2022-10-22T00:07:43;5.65;;;4.28;;
22070;SDS011;11200;51.488;6.668;2022-10-22T00:10:09;6.15;;;4.40;;
22070;SDS011;11200;51.488;6.668;2022-10-22T00:12:34;5.57;;;4.40;;
22070;SDS011;11200;51.488;6.668;2022-10-22T00:15:01;5.40;;;4.30;;
22070;SDS011;11200;51.488;6.668;2022-10-22T00:17:27;4.68;;;4.07;;
22070;SDS011;11200;51.488;6.668;2022-10-22T00:19:53;5.82;;;4.00;;
22070;SDS011;11200;51.488;6.668;2022-10-22T00:22:18;6.30;;;4.20;;
22070;SDS011;11200;51.488;6.668;2022-10-22T00:24:44;5.50;;;4.47;;
22070;SDS011;11200;51.488;6.668;2022-10-22T00:27:10;4.70;;;3.90;;
22070;SDS011;11200;51.488;6.668;2022-10-22T00:29:35;4.53;;;3.65;;
22070;SDS011;11200;51.488;6.668;2022-10-22T00:32:02;5.45;;;3.90;;
22070;SDS011;11200;51.488;6.668;2022-10-22T00:34:28;5.05;;;4.20;;
22070;SDS011;11200;51.488;6.668;2022-10-22T00:36:54;5.10;;;4.00;;
22070;SDS011;11200;51.488;6.668;2022-10-22T00:39:20;4.72;;;4.20;;
22070;SDS011;11200;51.488;6.668;2022-10-22T00:41:47;4.22;;;3.83;;
22070;SDS011;11200;51.488;6.668;2022-10-22T00:47:18;5.85;;;4.18;;
22070;SDS011;11200;51.488;6.668;2022-10-22T00:49:46;4.68;;;3.85;;
22070;SDS011;11200;51.488;6.668;2022-10-22T00:52:12;5.32;;;3.83;;
22070;SDS011;11200;51.488;6.668;2022-10-22T00:54:38;6.35;;;4.18;;
22070;SDS011;11200;51.488;6.668;2022-10-22T00:57:05;5.80;;;3.92;;
22070;SDS011;11200;51.488;6.668;2022-10-22T00:59:30;5.50;;;4.13;;
22070;SDS011;11200;51.488;6.668;2022-10-22T01:01:56;5.50;;;4.18;;
22070;SDS011;11200;51.488;6.668;2022-10-22T01:04:22;4.32;;;3.92;;
22070;SDS011;11200;51.488;6.668;2022-10-22T01:06:48;5.22;;;4.10;;
22070;SDS011;11200;51.488;6.668;2022-10-22T01:09:15;5.57;;;4.40;;
22070;SDS011;11200;51.488;6.668;2022-10-22T01:11:56;5.25;;;3.80;;
22070;SDS011;11200;51.488;6.668;2022-10-22T01:14:44;5.03;;;3.90;;
22070;SDS011;11200;51.488;6.668;2022-10-22T01:31:55;5.63;;;4.22;;
22070;SDS011;11200;51.488;6.668;2022-10-22T01:34:23;5.93;;;4.22;;
22070;SDS011;11200;51.488;6.668;2022-10-22T01:36:51;4.10;;;3.70;;
22070;SDS011;11200;51.488;6.668;2022-10-22T01:39:19;6.35;;;4.05;;
22070;SDS011;11200;51.488;6.668;2022-10-22T01:41:47;5.65;;;4.00;;
22070;SDS011;11200;51.488;6.668;2022-10-22T01:44:32;4.53;;;4.10;;
22070;SDS011;11200;51.488;6.668;2022-10-22T01:47:06;6.13;;;4.15;;
22070;SDS011;11200;51.488;6.668;2022-10-22T01:58:18;5.15;;;4.00;;
22070;SDS011;11200;51.488;6.668;2022-10-22T02:06:38;5.60;;;3.67;;
22070;SDS011;11200;51.488;6.668;2022-10-22T02:09:06;4.95;;;3.90;;
22070;SDS011;11200;51.488;6.668;2022-10-22T02:11:34;6.03;;;3.50;;
22070;SDS011;11200;51.488;6.668;2022-10-22T02:14:01;4.50;;;3.70;;
22070;SDS011;11200;51.488;6.668;2022-10-22T02:16:32;5.38;;;4.07;;
22070;SDS011;11200;51.488;6.668;2022-10-22T02:19:01;4.72;;;3.90;;
22070;SDS011;11200;51.488;6.668;2022-10-22T02:21:30;5.88;;;3.60;;
22070;SDS011;11200;51.488;6.668;2022-10-22T02:23:56;4.97;;;4.03;;
22070;SDS011;11200;51.488;6.668;2022-10-22T02:26:23;5.22;;;3.83;;
22070;SDS011;11200;51.488;6.668;2022-10-22T02:28:58;4.63;;;3.67;;
22070;SDS011;11200;51.488;6.668;2022-10-22T02:31:30;5.10;;;3.85;;
22070;SDS011;11200;51.488;6.668;2022-10-22T02:34:01;5.00;;;3.90;;
22070;SDS011;11200;51.488;6.668;2022-10-22T02:36:32;5.32;;;3.85;;
22070;SDS011;11200;51.488;6.668;2022-10-22T02:38:58;4.45;;;3.63;;
22070;SDS011;11200;51.488;6.668;2022-10-22T02:41:25;5.13;;;3.65;;
22070;SDS011;11200;51.488;6.668;2022-10-22T02:43:54;4.47;;;3.50;;
22070;SDS011;11200;51.488;6.668;2022-10-22T02:46:20;4.63;;;3.97;;
22070;SDS011;11200;51.488;6.668;2022-10-22T02:48:46;4.05;;;3.65;;
22070;SDS011;11200;51.488;6.668;2022-10-22T02:51:12;4.65;;;3.40;;
22070;SDS011;11200;51.488;6.668;2022-10-22T02:53:38;4.32;;;3.63;;
22070;SDS011;11200;51.488;6.668;2022-10-22T02:56:04;5.38;;;3.60;;
22070;SDS011;11200;51.488;6.668;2022-10-22T02:58:30;4.72;;;3.75;;
22070;SDS011;11200;51.488;6.668;2022-10-22T03:00:55;4.78;;;3.72;;
22070;SDS011;11200;51.488;6.668;2022-10-22T03:03:21;5.13;;;3.95;;
22070;SDS011;11200;51.488;6.668;2022-10-22T03:05:46;5.47;;;3.70;;
22070;SDS011;11200;51.488;6.668;2022-10-22T03:08:14;4.20;;;3.78;;
22070;SDS011;11200;51.488;6.668;2022-10-22T03:10:39;5.88;;;4.10;;
22070;SDS011;11200;51.488;6.668;2022-10-22T03:13:05;4.95;;;3.63;;
22070;SDS011;11200;51.488;6.668;2022-10-22T03:15:31;4.10;;;3.55;;
22070;SDS011;11200;51.488;6.668;2022-10-22T03:17:56;5.50;;;3.97;;
22070;SDS011;11200;51.488;6.668;2022-10-22T03:20:22;5.40;;;3.55;;
22070;SDS011;11200;51.488;6.668;2022-10-22T03:22:47;5.28;;;3.80;;
22070;SDS011;11200;51.488;6.668;2022-10-22T03:25:15;5.32;;;3.75;;
22070;SDS011;11200;51.488;6.668;2022-10-22T03:27:44;6.10;;;3.90;;
22070;SDS011;11200;51.488;6.668;2022-10-22T03:30:11;5.85;;;3.90;;
22070;SDS011;11200;51.488;6.668;2022-10-22T03:32:37;4.65;;;3.88;;
22070;SDS011;11200;51.488;6.668;2022-10-22T03:35:03;5.03;;;4.00;;
22070;SDS011;11200;51.488;6.668;2022-10-22T03:37:29;4.95;;;4.10;;
22070;SDS011;11200;51.488;6.668;2022-10-22T03:39:56;5.00;;;3.92;;
22070;SDS011;11200;51.488;6.668;2022-10-22T03:42:22;4.43;;;3.60;;
22070;SDS011;11200;51.488;6.668;2022-10-22T03:44:48;4.47;;;3.85;;
22070;SDS011;11200;51.488;6.668;2022-10-22T03:47:14;5.13;;;3.83;;
22070;SDS011;11200;51.488;6.668;2022-10-22T03:49:40;5.80;;;4.00;;
22070;SDS011;11200;51.488;6.668;2022-10-22T03:52:09;4.93;;;4.05;;
22070;SDS011;11200;51.488;6.668;2022-10-22T03:54:37;4.28;;;3.88;;
22070;SDS011;11200;51.488;6.668;2022-10-22T03:57:03;5.20;;;3.90;;
22070;SDS011;11200;51.488;6.668;2022-10-22T03:59:34;4.57;;;3.90;;
22070;SDS011;11200;51.488;6.668;2022-10-22T04:02:01;5.30;;;4.20;;
22070;SDS011;11200;51.488;6.668;2022-10-22T04:04:26;5.43;;;3.90;;
22070;SDS011;11200;51.488;6.668;2022-10-22T04:06:53;4.72;;;4.05;;
22070;SDS011;11200;51.488;6.668;2022-10-22T04:09:18;5.30;;;4.15;;
22070;SDS011;11200;51.488;6.668;2022-10-22T04:11:44;6.35;;;4.43;;
22070;SDS011;11200;51.488;6.668;2022-10-22T04:14:10;4.57;;;3.83;;
22070;SDS011;11200;51.488;6.668;2022-10-22T04:16:37;5.43;;;3.70;;
22070;SDS011;11200;51.488;6.668;2022-10-22T04:19:04;5.15;;;3.83;;
22070;SDS011;11200;51.488;6.668;2022-10-22T04:21:29;4.47;;;3.72;;
22070;SDS011;11200;51.488;6.668;2022-10-22T04:23:55;4.75;;;4.10;;
22070;SDS011;11200;51.488;6.668;2022-10-22T04:26:21;5.70;;;3.80;;
22070;SDS011;11200;51.488;6.668;2022-10-22T04:28:47;5.00;;;3.63;;
22070;SDS011;11200;51.488;6.668;2022-10-22T04:31:15;6.38;;;4.13;;
22070;SDS011;11200;51.488;6.668;2022-10-22T04:33:42;4.53;;;3.88;;
22070;SDS011;11200;51.488;6.668;2022-10-22T04:36:12;4.28;;;3.83;;
22070;SDS011;11200;51.488;6.668;2022-10-22T04:38:40;5.82;;;4.50;;
22070;SDS011;11200;51.488;6.668;2022-10-22T04:41:15;4.88;;;4.15;;
22070;SDS011;11200;51.488;6.668;2022-10-22T04:43:42;6.05;;;4.05;;
22070;SDS011;11200;51.488;6.668;2022-10-22T04:46:08;5.00;;;3.63;;
22070;SDS011;11200;51.488;6.668;2022-10-22T04:48:36;5.00;;;3.72;;
22070;SDS011;11200;51.488;6.668;2022-10-22T04:51:03;4.15;;;3.63;;
22070;SDS011;11200;51.488;6.668;2022-10-22T04:53:29;5.30;;;4.00;;
22070;SDS011;11200;51.488;6.668;2022-10-22T04:55:55;4.55;;;3.65;;
22070;SDS011;11200;51.488;6.668;2022-10-22T04:58:38;5.15;;;3.80;;
22070;SDS011;11200;51.488;6.668;2022-10-22T05:01:11;5.18;;;3.97;;
22070;SDS011;11200;51.488;6.668;2022-10-22T05:03:38;4.65;;;4.15;;
22070;SDS011;11200;51.488;6.668;2022-10-22T05:06:04;5.25;;;3.75;;
22070;SDS011;11200;51.488;6.668;2022-10-22T05:08:30;4.75;;;3.97;;
22070;SDS011;11200;51.488;6.668;2022-10-22T05:10:55;5.68;;;3.60;;
22070;SDS011;11200;51.488;6.668;2022-10-22T05:13:21;4.82;;;3.90;;
22070;SDS011;11200;51.488;6.668;2022-10-22T05:15:46;4.68;;;3.95;;
22070;SDS011;11200;51.488;6.668;2022-10-22T05:18:12;5.28;;;3.67;;
22070;SDS011;11200;51.488;6.668;2022-10-22T05:20:38;6.97;;;3.80;;
22070;SDS011;11200;51.488;6.668;2022-10-22T05:23:04;5.93;;;3.70;;
22070;SDS011;11200;51.488;6.668;2022-10-22T05:25:30;3.65;;;3.30;;
22070;SDS011;11200;51.488;6.668;2022-10-22T05:27:56;5.18;;;3.90;;
22070;SDS011;11200;51.488;6.668;2022-10-22T05:30:21;5.07;;;3.75;;
22070;SDS011;11200;51.488;6.668;2022-10-22T05:32:47;4.35;;;3.42;;
22070;SDS011;11200;51.488;6.668;2022-10-22T05:35:12;5.00;;;3.65;;
22070;SDS011;11200;51.488;6.668;2022-10-22T05:37:38;5.03;;;3.75;;
22070;SDS011;11200;51.488;6.668;2022-10-22T05:40:04;5.50;;;3.70;;
22070;SDS011;11200;51.488;6.668;2022-10-22T05:42:30;6.18;;;3.63;;
22070;SDS011;11200;51.488;6.668;2022-10-22T05:44:56;4.78;;;3.85;;
22070;SDS011;11200;51.488;6.668;2022-10-22T05:47:22;5.78;;;4.22;;
22070;SDS011;11200;51.488;6.668;2022-10-22T05:49:47;5.28;;;3.67;;
22070;SDS011;11200;51.488;6.668;2022-10-22T05:52:13;6.45;;;3.75;;
22070;SDS011;11200;51.488;6.668;2022-10-22T05:54:39;7.65;;;3.67;;
22070;SDS011;11200;51.488;6.668;2022-10-22T05:57:04;4.57;;;3.72;;
22070;SDS011;11200;51.488;6.668;2022-10-22T05:59:30;5.28;;;3.55;;
22070;SDS011;11200;51.488;6.668;2022-10-22T06:01:55;4.38;;;3.85;;
22070;SDS011;11200;51.488;6.668;2022-10-22T06:04:21;4.32;;;3.63;;
22070;SDS011;11200;51.488;6.668;2022-10-22T06:06:48;5.60;;;3.85;;
22070;SDS011;11200;51.488;6.668;2022-10-22T06:09:28;4.10;;;3.55;;
22070;SDS011;11200;51.488;6.668;2022-10-22T06:11:55;4.40;;;3.53;;
22070;SDS011;11200;51.488;6.668;2022-10-22T06:14:21;4.00;;;3.60;;
22070;SDS011;11200;51.488;6.668;2022-10-22T06:16:48;4.78;;;3.67;;
22070;SDS011;11200;51.488;6.668;2022-10-22T06:19:17;4.32;;;3.47;;
22070;SDS011;11200;51.488;6.668;2022-10-22T06:21:47;5.97;;;3.30;;
22070;SDS011;11200;51.488;6.668;2022-10-22T06:24:16;4.90;;;3.70;;
22070;SDS011;11200;51.488;6.668;2022-10-22T06:26:48;4.38;;;3.50;;
22070;SDS011;11200;51.488;6.668;2022-10-22T06:29:15;4.60;;;3.25;;
22070;SDS011;11200;51.488;6.668;2022-10-22T06:31:40;4.50;;;3.40;;
22070;SDS011;11200;51.488;6.668;2022-10-22T06:34:07;3.90;;;3.50;;
22070;SDS011;11200;51.488;6.668;2022-10-22T06:36:38;3.97;;;3.58;;
22070;SDS011;11200;51.488;6.668;2022-10-22T06:39:08;4.00;;;3.35;;
22070;SDS011;11200;51.488;6.668;2022-10-22T06:41:38;4.20;;;3.30;;
22070;SDS011;11200;51.488;6.668;2022-10-22T06:44:06;4.50;;;3.75;;
22070;SDS011;11200;51.488;6.668;2022-10-22T06:46:37;4.63;;;3.58;;
22070;SDS011;11200;51.488;6.668;2022-10-22T06:49:02;4.28;;;3.70;;
22070;SDS011;11200;51.488;6.668;2022-10-22T06:51:29;4.72;;;3.67;;
22070;SDS011;11200;51.488;6.668;2022-10-22T06:53:56;4.65;;;3.40;;
22070;SDS011;11200;51.488;6.668;2022-10-22T06:56:23;7.90;;;3.80;;
22070;SDS011;11200;51.488;6.668;2022-10-22T06:58:51;5.47;;;3.53;;
22070;SDS011;11200;51.488;6.668;2022-10-22T07:01:19;5.47;;;3.80;;
22070;SDS011;11200;51.488;6.668;2022-10-22T07:03:49;5.70;;;3.88;;
22070;SDS011;11200;51.488;6.668;2022-10-22T07:06:18;3.72;;;3.30;;
22070;SDS011;11200;51.488;6.668;2022-10-22T07:08:45;5.10;;;3.65;;
22070;SDS011;11200;51.488;6.668;2022-10-22T07:11:12;4.50;;;3.53;;
22070;SDS011;11200;51.488;6.668;2022-10-22T07:13:39;5.35;;;3.60;;
22070;SDS011;11200;51.488;6.668;2022-10-22T07:16:05;4.40;;;3.42;;
22070;SDS011;11200;51.488;6.668;2022-10-22T07:18:35;5.90;;;3.83;;
22070;SDS011;11200;51.488;6.668;2022-10-22T07:21:12;4.15;;;3.33;;
22070;SDS011;11200;51.488;6.668;2022-10-22T07:23:44;3.65;;;3.10;;
22070;SDS011;11200;51.488;6.668;2022-10-22T07:26:11;4.28;;;3.05;;
22070;SDS011;11200;51.488;6.668;2022-10-22T07:28:38;4.72;;;3.10;;
22070;SDS011;11200;51.488;6.668;2022-10-22T07:31:05;4.18;;;3.25;;
22070;SDS011;11200;51.488;6.668;2022-10-22T07:33:33;4.28;;;3.13;;
22070;SDS011;11200;51.488;6.668;2022-10-22T07:35:59;5.68;;;3.47;;
22070;SDS011;11200;51.488;6.668;2022-10-22T07:38:27;5.30;;;2.90;;
22070;SDS011;11200;51.488;6.668;2022-10-22T07:40:53;4.68;;;3.30;;
22070;SDS011;11200;51.488;6.668;2022-10-22T07:43:18;3.90;;;3.05;;
22070;SDS011;11200;51.488;6.668;2022-10-22T07:45:44;3.40;;;3.00;;
22070;SDS011;11200;51.488;6.668;2022-10-22T07:48:10;3.45;;;2.90;;
22070;SDS011;11200;51.488;6.668;2022-10-22T07:50:35;4.40;;;3.50;;
22070;SDS011;11200;51.488;6.668;2022-10-22T07:53:01;4.95;;;3.05;;
22070;SDS011;11200;51.488;6.668;2022-10-22T07:55:26;5.50;;;3.00;;
22070;SDS011;11200;51.488;6.668;2022-10-22T07:57:52;3.33;;;2.80;;
22070;SDS011;11200;51.488;6.668;2022-10-22T08:00:18;5.10;;;3.10;;
22070;SDS011;11200;51.488;6.668;2022-10-22T08:02:44;6.15;;;3.08;;
22070;SDS011;11200;51.488;6.668;2022-10-22T08:05:09;4.40;;;2.95;;
22070;SDS011;11200;51.488;6.668;2022-10-22T08:07:37;4.38;;;3.13;;
22070;SDS011;11200;51.488;6.668;2022-10-22T08:10:03;4.05;;;2.75;;
22070;SDS011;11200;51.488;6.668;2022-10-22T08:12:29;5.25;;;2.80;;
22070;SDS011;11200;51.488;6.668;2022-10-22T08:14:54;6.80;;;3.00;;
22070;SDS011;11200;51.488;6.668;2022-10-22T08:17:20;6.93;;;3.30;;
22070;SDS011;11200;51.488;6.668;2022-10-22T08:19:45;4.95;;;2.78;;
22070;SDS011;11200;51.488;6.668;2022-10-22T08:22:11;4.72;;;2.88;;
22070;SDS011;11200;51.488;6.668;2022-10-22T08:24:36;5.35;;;2.75;;
22070;SDS011;11200;51.488;6.668;2022-10-22T08:27:02;3.65;;;2.60;;
22070;SDS011;11200;51.488;6.668;2022-10-22T08:29:28;4.00;;;2.80;;
22070;SDS011;11200;51.488;6.668;2022-10-22T08:31:53;3.65;;;2.70;;
22070;SDS011;11200;51.488;6.668;2022-10-22T08:34:19;4.70;;;2.60;;
22070;SDS011;11200;51.488;6.668;2022-10-22T08:36:45;4.63;;;2.70;;
22070;SDS011;11200;51.488;6.668;2022-10-22T08:39:11;4.50;;;2.70;;
22070;SDS011;11200;51.488;6.668;2022-10-22T08:53:06;3.83;;;2.45;;
22070;SDS011;11200;51.488;6.668;2022-10-22T08:55:37;4.70;;;2.30;;
22070;SDS011;11200;51.488;6.668;2022-10-22T08:58:16;4.60;;;2.60;;
22070;SDS011;11200;51.488;6.668;2022-10-22T09:06:20;4.97;;;2.45;;
22070;SDS011;11200;51.488;6.668;2022-10-22T09:08:59;3.50;;;2.10;;
22070;SDS011;11200;51.488;6.668;2022-10-22T09:11:42;4.65;;;2.42;;
22070;SDS011;11200;51.488;6.668;2022-10-22T09:14:15;5.40;;;2.60;;
22070;SDS011;11200;51.488;6.668;2022-10-22T09:24:57;4.38;;;2.35;;
22070;SDS011;11200;51.488;6.668;2022-10-22T09:27:37;5.40;;;2.58;;
22070;SDS011;11200;51.488;6.668;2022-10-22T09:30:03;4.45;;;2.35;;
22070;SDS011;11200;51.488;6.668;2022-10-22T09:32:29;3.67;;;2.10;;
22070;SDS011;11200;51.488;6.668;2022-10-22T09:34:56;4.60;;;2.20;;
22070;SDS011;11200;51.488;6.668;2022-10-22T09:37:26;5.72;;;2.15;;
22070;SDS011;11200;51.488;6.668;2022-10-22T09:39:54;2.65;;;1.88;;
22070;SDS011;11200;51.488;6.668;2022-10-22T09:42:21;6.32;;;2.47;;
22070;SDS011;11200;51.488;6.668;2022-10-22T09:44:57;3.45;;;2.03;;
22070;SDS011;11200;51.488;6.668;2022-10-22T09:52:44;4.28;;;2.00;;
22070;SDS011;11200;51.488;6.668;2022-10-22T09:55:18;4.95;;;2.22;;
22070;SDS011;11200;51.488;6.668;2022-10-22T09:57:51;3.95;;;2.10;;
22070;SDS011;11200;51.488;6.668;2022-10-22T10:00:18;3.90;;;2.20;;
22070;SDS011;11200;51.488;6.668;2022-10-22T10:02:44;6.88;;;2.25;;
22070;SDS011;11200;51.488;6.668;2022-10-22T10:05:18;4.53;;;2.30;;
22070;SDS011;11200;51.488;6.668;2022-10-22T10:07:45;3.47;;;1.90;;
22070;SDS011;11200;51.488;6.668;2022-10-22T10:13:41;4.95;;;2.10;;
22070;SDS011;11200;51.488;6.668;2022-10-22T10:16:13;7.25;;;2.38;;
22070;SDS011;11200;51.488;6.668;2022-10-22T10:19:12;4.03;;;2.17;;
22070;SDS011;11200;51.488;6.668;2022-10-22T10:30:12;4.53;;;1.80;;
22070;SDS011;11200;51.488;6.668;2022-10-22T10:41:32;3.65;;;1.90;;
22070;SDS011;11200;51.488;6.668;2022-10-22T10:44:16;3.03;;;1.83;;
22070;SDS011;11200;51.488;6.668;2022-10-22T10:49:55;4.45;;;1.80;;
22070;SDS011;11200;51.488;6.668;2022-10-22T10:53:00;3.45;;;1.92;;
22070;SDS011;11200;51.488;6.668;2022-10-22T10:55:29;5.00;;;1.90;;
22070;SDS011;11200;51.488;6.668;2022-10-22T11:00:25;4.20;;;2.28;;
22070;SDS011;11200;51.488;6.668;2022-10-22T11:05:50;4.05;;;1.90;;
22070;SDS011;11200;51.488;6.668;2022-10-22T11:08:20;3.72;;;1.60;;
22070;SDS011;11200;51.488;6.668;2022-10-22T11:13:29;4.75;;;2.00;;
22070;SDS011;11200;51.488;6.668;2022-10-22T11:16:19;3.70;;;1.80;;
22070;SDS011;11200;51.488;6.668;2022-10-22T11:26:38;3.47;;;1.70;;
22070;SDS011;11200;51.488;6.668;2022-10-22T11:29:12;3.78;;;1.63;;
22070;SDS011;11200;51.488;6.668;2022-10-22T11:31:42;4.65;;;2.10;;
22070;SDS011;11200;51.488;6.668;2022-10-22T11:36:46;4.30;;;1.65;;
22070;SDS011;11200;51.488;6.668;2022-10-22T11:39:26;3.17;;;1.45;;
22070;SDS011;11200;51.488;6.668;2022-10-22T11:42:18;3.60;;;1.65;;
22070;SDS011;11200;51.488;6.668;2022-10-22T11:45:04;3.45;;;1.50;;
22070;SDS011;11200;51.488;6.668;2022-10-22T11:47:51;4.00;;;1.60;;
22070;SDS011;11200;51.488;6.668;2022-10-22T11:53:01;2.65;;;1.50;;
22070;SDS011;11200;51.488;6.668;2022-10-22T11:55:42;3.60;;;1.65;;
22070;SDS011;11200;51.488;6.668;2022-10-22T12:11:14;3.42;;;1.60;;
22070;SDS011;11200;51.488;6.668;2022-10-22T12:16:43;3.65;;;1.63;;
22070;SDS011;11200;51.488;6.668;2022-10-22T12:21:50;4.03;;;1.65;;
22070;SDS011;11200;51.488;6.668;2022-10-22T12:24:22;1.98;;;1.20;;
22070;SDS011;11200;51.488;6.668;2022-10-22T12:26:49;2.90;;;1.35;;
22070;SDS011;11200;51.488;6.668;2022-10-22T12:29:17;2.85;;;1.50;;
22070;SDS011;11200;51.488;6.668;2022-10-22T12:31:44;5.75;;;1.67;;
22070;SDS011;11200;51.488;6.668;2022-10-22T12:34:19;3.20;;;1.38;;
22070;SDS011;11200;51.488;6.668;2022-10-22T12:36:47;3.33;;;1.60;;
22070;SDS011;11200;51.488;6.668;2022-10-22T12:39:15;2.35;;;1.33;;
22070;SDS011;11200;51.488;6.668;2022-10-22T12:41:42;3.70;;;1.52;;
22070;SDS011;11200;51.488;6.668;2022-10-22T12:44:10;4.38;;;1.60;;
22070;SDS011;11200;51.488;6.668;2022-10-22T12:46:38;4.70;;;1.55;;
22070;SDS011;11200;51.488;6.668;2022-10-22T12:49:16;5.35;;;2.00;;
22070;SDS011;11200;51.488;6.668;2022-10-22T12:51:45;3.47;;;1.45;;
22070;SDS011;11200;51.488;6.668;2022-10-22T12:54:34;4.70;;;1.70;;
22070;SDS011;11200;51.488;6.668;2022-10-22T12:57:03;3.17;;;1.67;;
22070;SDS011;11200;51.488;6.668;2022-10-22T13:00:01;4.78;;;1.70;;
22070;SDS011;11200;51.488;6.668;2022-10-22T13:02:28;4.85;;;1.45;;
22070;SDS011;11200;51.488;6.668;2022-10-22T13:05:07;4.03;;;1.40;;
22070;SDS011;11200;51.488;6.668;2022-10-22T13:07:46;4.68;;;1.65;;
22070;SDS011;11200;51.488;6.668;2022-10-22T13:10:30;4.00;;;1.60;;
22070;SDS011;11200;51.488;6.668;2022-10-22T13:13:03;5.15;;;1.75;;
22070;SDS011;11200;51.488;6.668;2022-10-22T13:20:55;6.45;;;1.40;;
22070;SDS011;11200;51.488;6.668;2022-10-22T13:23:26;2.80;;;1.25;;
22070;SDS011;11200;51.488;6.668;2022-10-22T13:26:02;4.10;;;1.60;;
22070;SDS011;11200;51.488;6.668;2022-10-22T13:28:36;3.60;;;1.50;;
22070;SDS011;11200;51.488;6.668;2022-10-22T13:31:16;3.38;;;1.38;;
22070;SDS011;11200;51.488;6.668;2022-10-22T13:33:45;5.10;;;1.65;;
22070;SDS011;11200;51.488;6.668;2022-10-22T13:36:17;3.67;;;1.50;;
22070;SDS011;11200;51.488;6.668;2022-10-22T13:38:43;2.97;;;1.20;;
22070;SDS011;11200;51.488;6.668;2022-10-22T13:41:19;4.60;;;1.70;;
22070;SDS011;11200;51.488;6.668;2022-10-22T13:43:50;3.95;;;1.77;;
22070;SDS011;11200;51.488;6.668;2022-10-22T13:46:16;2.15;;;1.40;;
22070;SDS011;11200;51.488;6.668;2022-10-22T13:48:43;3.72;;;1.52;;
22070;SDS011;11200;51.488;6.668;2022-10-22T13:51:14;2.95;;;1.42;;
22070;SDS011;11200;51.488;6.668;2022-10-22T13:53:50;2.35;;;1.20;;
22070;SDS011;11200;51.488;6.668;2022-10-22T13:56:20;2.67;;;1.48;;
22070;SDS011;11200;51.488;6.668;2022-10-22T13:58:49;2.85;;;1.33;;
22070;SDS011;11200;51.488;6.668;2022-10-22T14:01:19;3.88;;;1.70;;
22070;SDS011;11200;51.488;6.668;2022-10-22T14:03:48;1.95;;;1.33;;
22070;SDS011;11200;51.488;6.668;2022-10-22T14:06:15;4.10;;;1.48;;
22070;SDS011;11200;51.488;6.668;2022-10-22T14:08:43;3.22;;;1.50;;
22070;SDS011;11200;51.488;6.668;2022-10-22T14:11:11;3.42;;;1.40;;
22070;SDS011;11200;51.488;6.668;2022-10-22T14:13:37;3.47;;;1.50;;
22070;SDS011;11200;51.488;6.668;2022-10-22T14:16:03;2.60;;;1.27;;
22070;SDS011;11200;51.488;6.668;2022-10-22T14:18:33;2.50;;;1.00;;
22070;SDS011;11200;51.488;6.668;2022-10-22T14:21:00;2.90;;;1.52;;
22070;SDS011;11200;51.488;6.668;2022-10-22T14:23:29;3.33;;;1.38;;
22070;SDS011;11200;51.488;6.668;2022-10-22T14:25:56;4.30;;;1.40;;
22070;SDS011;11200;51.488;6.668;2022-10-22T14:28:23;3.42;;;1.73;;
22070;SDS011;11200;51.488;6.668;2022-10-22T14:30:49;3.10;;;1.52;;
22070;SDS011;11200;51.488;6.668;2022-10-22T14:33:17;3.97;;;1.50;;
22070;SDS011;11200;51.488;6.668;2022-10-22T14:35:55;3.10;;;1.33;;
22070;SDS011;11200;51.488;6.668;2022-10-22T14:38:21;4.72;;;1.50;;
22070;SDS011;11200;51.488;6.668;2022-10-22T14:40:47;2.97;;;1.30;;
22070;SDS011;11200;51.488;6.668;2022-10-22T14:43:17;3.63;;;1.48;;
22070;SDS011;11200;51.488;6.668;2022-10-22T14:45:46;4.78;;;1.23;;
22070;SDS011;11200;51.488;6.668;2022-10-22T14:48:12;2.97;;;1.35;;
22070;SDS011;11200;51.488;6.668;2022-10-22T14:50:37;2.67;;;1.40;;
22070;SDS011;11200;51.488;6.668;2022-10-22T14:53:03;3.97;;;1.63;;
22070;SDS011;11200;51.488;6.668;2022-10-22T14:55:28;4.38;;;1.65;;
22070;SDS011;11200;51.488;6.668;2022-10-22T14:57:54;3.30;;;1.40;;
22070;SDS011;11200;51.488;6.668;2022-10-22T15:00:20;1.60;;;1.20;;
22070;SDS011;11200;51.488;6.668;2022-10-22T15:02:49;2.70;;;1.48;;
22070;SDS011;11200;51.488;6.668;2022-10-22T15:05:14;4.70;;;1.60;;
22070;SDS011;11200;51.488;6.668;2022-10-22T15:07:41;1.92;;;1.20;;
22070;SDS011;11200;51.488;6.668;2022-10-22T15:10:09;3.35;;;1.30;;
22070;SDS011;11200;51.488;6.668;2022-10-22T15:12:35;2.83;;;1.45;;
22070;SDS011;11200;51.488;6.668;2022-10-22T15:15:00;3.60;;;1.50;;
22070;SDS011;11200;51.488;6.668;2022-10-22T15:17:26;2.85;;;1.38;;
22070;SDS011;11200;51.488;6.668;2022-10-22T15:19:52;2.00;;;1.30;;
22070;SDS011;11200;51.488;6.668;2022-10-22T15:22:18;2.60;;;1.20;;
22070;SDS011;11200;51.488;6.668;2022-10-22T15:24:44;3.47;;;1.50;;
22070;SDS011;11200;51.488;6.668;2022-10-22T15:27:10;2.50;;;1.50;;
22070;SDS011;11200;51.488;6.668;2022-10-22T15:29:39;2.08;;;1.30;;
22070;SDS011;11200;51.488;6.668;2022-10-22T15:32:06;2.35;;;1.20;;
22070;SDS011;11200;51.488;6.668;2022-10-22T15:34:36;3.30;;;1.48;;
22070;SDS011;11200;51.488;6.668;2022-10-22T15:37:04;2.83;;;1.60;;
22070;SDS011;11200;51.488;6.668;2022-10-22T15:39:32;1.85;;;1.17;;
22070;SDS011;11200;51.488;6.668;2022-10-22T15:41:58;2.03;;;1.45;;
22070;SDS011;11200;51.488;6.668;2022-10-22T15:44:30;2.10;;;1.20;;
22070;SDS011;11200;51.488;6.668;2022-10-22T15:46:57;2.05;;;1.20;;
22070;SDS011;11200;51.488;6.668;2022-10-22T15:49:23;2.83;;;1.60;;
22070;SDS011;11200;51.488;6.668;2022-10-22T15:51:50;1.85;;;1.40;;
22070;SDS011;11200;51.488;6.668;2022-10-22T15:54:18;1.75;;;1.30;;
22070;SDS011;11200;51.488;6.668;2022-10-22T15:56:46;3.10;;;1.45;;
22070;SDS011;11200;51.488;6.668;2022-10-22T15:59:12;3.67;;;1.40;;
22070;SDS011;11200;51.488;6.668;2022-10-22T16:01:39;2.20;;;1.50;;
22070;SDS011;11200;51.488;6.668;2022-10-22T16:04:06;3.88;;;1.55;;
22070;SDS011;11200;51.488;6.668;2022-10-22T16:06:36;2.45;;;1.48;;
22070;SDS011;11200;51.488;6.668;2022-10-22T16:09:04;3.42;;;1.60;;
22070;SDS011;11200;51.488;6.668;2022-10-22T16:11:32;3.45;;;1.60;;
22070;SDS011;11200;51.488;6.668;2022-10-22T16:13:58;3.53;;;1.73;;
22070;SDS011;11200;51.488;6.668;2022-10-22T16:16:26;2.35;;;1.30;;
22070;SDS011;11200;51.488;6.668;2022-10-22T16:18:53;3.38;;;1.83;;
22070;SDS011;11200;51.488;6.668;2022-10-22T16:21:20;2.00;;;1.48;;
22070;SDS011;11200;51.488;6.668;2022-10-22T16:23:46;2.28;;;1.60;;
22070;SDS011;11200;51.488;6.668;2022-10-22T16:26:12;2.70;;;1.95;;
22070;SDS011;11200;51.488;6.668;2022-10-22T16:28:39;2.13;;;1.60;;
22070;SDS011;11200;51.488;6.668;2022-10-22T16:31:07;2.63;;;1.98;;
22070;SDS011;11200;51.488;6.668;2022-10-22T16:33:37;3.85;;;2.40;;
22070;SDS011;11200;51.488;6.668;2022-10-22T16:36:13;3.83;;;2.15;;
22070;SDS011;11200;51.488;6.668;2022-10-22T16:38:41;3.22;;;2.10;;
22070;SDS011;11200;51.488;6.668;2022-10-22T16:43:35;2.83;;;2.28;;
22070;SDS011;11200;51.488;6.668;2022-10-22T16:46:02;5.85;;;2.38;;
22070;SDS011;11200;51.488;6.668;2022-10-22T16:48:31;2.58;;;2.10;;
22070;SDS011;11200;51.488;6.668;2022-10-22T16:50:57;2.83;;;2.30;;
22070;SDS011;11200;51.488;6.668;2022-10-22T16:53:23;3.58;;;2.47;;
22070;SDS011;11200;51.488;6.668;2022-10-22T16:55:48;3.78;;;2.38;;
22070;SDS011;11200;51.488;6.668;2022-10-22T16:58:15;3.50;;;2.83;;
22070;SDS011;11200;51.488;6.668;2022-10-22T17:00:40;3.92;;;3.08;;
22070;SDS011;11200;51.488;6.668;2022-10-22T17:03:07;5.00;;;3.58;;
22070;SDS011;11200;51.488;6.668;2022-10-22T17:05:35;4.20;;;3.45;;
22070;SDS011;11200;51.488;6.668;2022-10-22T17:08:09;6.05;;;3.75;;
22070;SDS011;11200;51.488;6.668;2022-10-22T17:10:35;4.68;;;3.42;;